sensor_id;sensor_type;location;lat;lon;timestamp;pressure;altitude;pressure_sealevel;temperature;humidity
18765;BME280;9511;54.242;12.448;2023-02-28T04:05:11;103116.22;;;-3.34;100.00
18765;BME280;9511;54.242;12.448;2023-02-28T04:07:38;103115.28;;;-3.35;100.00
18765;BME280;9511;54.242;12.448;2023-02-28T04:10:06;103118.63;;;-3.36;100.00
18765;BME280;9511;54.242;12.448;2023-02-28T04:12:34;103122.88;;;-3.36;100.00
18765;BME280;9511;54.242;12.448;2023-02-28T04:15:01;103126.22;;;-3.37;100.00
18765;BME280;9511;54.242;12.448;2023-02-28T04:17:28;103123.41;;;-3.39;100.00
18765;BME280;9511;54.242;12.448;2023-02-28T04:19:56;103124.00;;;-3.41;100.00
18765;BME280;9511;54.242;12.448;2023-02-28T04:22:24;103133.97;;;-3.52;100.00
18765;BME280;9511;54.242;12.448;2023-02-28T04:24:52;103127.34;;;-3.50;100.00
18765;BME280;9511;54.242;12.448;2023-02-28T04:27:20;103120.69;;;-3.48;100.00
18765;BME280;9511;54.242;12.448;2023-02-28T04:29:47;103130.28;;;-3.47;100.00
18765;BME280;9511;54.242;12.448;2023-02-28T04:32:15;103127.53;;;-3.48;100.00
18765;BME280;9511;54.242;12.448;2023-02-28T04:34:42;103132.50;;;-3.57;100.00
18765;BME280;9511;54.242;12.448;2023-02-28T04:37:09;103135.84;;;-3.58;100.00
18765;BME280;9511;54.242;12.448;2023-02-28T04:39:38;103134.00;;;-3.59;100.00
18765;BME280;9511;54.242;12.448;2023-02-28T04:42:06;103135.31;;;-3.55;100.00
18765;BME280;9511;54.242;12.448;2023-02-28T04:44:33;103130.31;;;-3.61;100.00
18765;BME280;9511;54.242;12.448;2023-02-28T04:47:00;103128.09;;;-3.65;100.00
18765;BME280;9511;54.242;12.448;2023-02-28T04:49:28;103132.91;;;-3.61;100.00
18765;BME280;9511;54.242;12.448;2023-02-28T04:51:55;103127.75;;;-3.61;100.00
18765;BME280;9511;54.242;12.448;2023-02-28T04:54:22;103131.03;;;-3.62;100.00
18765;BME280;9511;54.242;12.448;2023-02-28T04:56:51;103129.78;;;-3.65;100.00
18765;BME280;9511;54.242;12.448;2023-02-28T04:59:18;103129.78;;;-3.72;100.00
18765;BME280;9511;54.242;12.448;2023-02-28T05:01:47;103127.53;;;-3.69;100.00
18765;BME280;9511;54.242;12.448;2023-02-28T05:04:15;103128.44;;;-3.62;100.00
18765;BME280;9511;54.242;12.448;2023-02-28T05:06:44;103130.47;;;-3.52;100.00
18765;BME280;9511;54.242;12.448;2023-02-28T05:09:11;103136.03;;;-3.49;100.00
18765;BME280;9511;54.242;12.448;2023-02-28T05:11:39;103129.94;;;-3.50;100.00
18765;BME280;9511;54.242;12.448;2023-02-28T05:14:10;103133.25;;;-3.51;100.00
18765;BME280;9511;54.242;12.448;2023-02-28T05:16:38;103131.78;;;-3.49;100.00
18765;BME280;9511;54.242;12.448;2023-02-28T05:19:05;103133.06;;;-3.52;100.00
18765;BME280;9511;54.242;12.448;2023-02-28T05:21:33;103134.34;;;-3.56;100.00
18765;BME280;9511;54.242;12.448;2023-02-28T05:24:03;103136.94;;;-3.63;100.00
18765;BME280;9511;54.242;12.448;2023-02-28T05:26:34;103134.03;;;-3.66;100.00
18765;BME280;9511;54.242;12.448;2023-02-28T05:29:01;103130.88;;;-3.70;100.00
18765;BME280;9511;54.242;12.448;2023-02-28T05:31:30;103138.81;;;-3.76;100.00
18765;BME280;9511;54.242;12.448;2023-02-28T05:34:00;103140.47;;;-3.91;100.00
18765;BME280;9511;54.242;12.448;2023-02-28T05:36:30;103135.88;;;-3.93;100.00
18765;BME280;9511;54.242;12.448;2023-02-28T05:38:58;103130.13;;;-3.98;100.00
18765;BME280;9511;54.242;12.448;2023-02-28T05:41:25;103135.88;;;-4.01;100.00
18765;BME280;9511;54.242;12.448;2023-02-28T05:43:52;103143.81;;;-3.99;100.00
18765;BME280;9511;54.242;12.448;2023-02-28T05:46:20;103136.06;;;-3.99;100.00
18765;BME280;9511;54.242;12.448;2023-02-28T05:48:48;103136.22;;;-4.05;100.00
18765;BME280;9511;54.242;12.448;2023-02-28T05:51:16;103136.75;;;-4.07;100.00
18765;BME280;9511;54.242;12.448;2023-02-28T05:53:44;103136.97;;;-3.98;100.00
18765;BME280;9511;54.242;12.448;2023-02-28T05:56:11;103140.66;;;-4.04;100.00
18765;BME280;9511;54.242;12.448;2023-02-28T05:58:38;103140.84;;;-4.02;100.00
18765;BME280;9511;54.242;12.448;2023-02-28T06:01:20;103134.00;;;-4.02;100.00
18765;BME280;9511;54.242;12.448;2023-02-28T06:03:50;103135.13;;;-4.07;100.00
18765;BME280;9511;54.242;12.448;2023-02-28T06:06:17;103134.00;;;-4.16;100.00
18765;BME280;9511;54.242;12.448;2023-02-28T06:08:44;103131.06;;;-4.12;100.00
18765;BME280;9511;54.242;12.448;2023-02-28T06:11:12;103131.81;;;-4.06;100.00
18765;BME280;9511;54.242;12.448;2023-02-28T06:13:39;103132.38;;;-4.01;100.00
18765;BME280;9511;54.242;12.448;2023-02-28T06:16:08;103131.97;;;-3.97;100.00
18765;BME280;9511;54.242;12.448;2023-02-28T06:18:35;103135.88;;;-4.01;100.00
18765;BME280;9511;54.242;12.448;2023-02-28T06:21:04;103137.88;;;-3.98;100.00
18765;BME280;9511;54.242;12.448;2023-02-28T06:23:31;103143.97;;;-3.90;100.00
18765;BME280;9511;54.242;12.448;2023-02-28T06:25:58;103139.19;;;-3.87;100.00
18765;BME280;9511;54.242;12.448;2023-02-28T06:28:26;103143.63;;;-3.86;100.00
18765;BME280;9511;54.242;12.448;2023-02-28T06:30:53;103153.78;;;-3.88;100.00
18765;BME280;9511;54.242;12.448;2023-02-28T06:33:20;103153.94;;;-3.79;100.00
18765;BME280;9511;54.242;12.448;2023-02-28T06:35:49;103146.56;;;-3.76;100.00
18765;BME280;9511;54.242;12.448;2023-02-28T06:38:18;103139.91;;;-3.74;100.00
18765;BME280;9511;54.242;12.448;2023-02-28T06:40:52;103152.09;;;-3.59;100.00
18765;BME280;9511;54.242;12.448;2023-02-28T06:43:20;103146.38;;;-3.49;100.00
18765;BME280;9511;54.242;12.448;2023-02-28T06:45:47;103153.00;;;-3.37;100.00
18765;BME280;9511;54.242;12.448;2023-02-28T06:48:14;103152.41;;;-3.27;100.00
18765;BME280;9511;54.242;12.448;2023-02-28T06:50:42;103163.16;;;-3.24;100.00
18765;BME280;9511;54.242;12.448;2023-02-28T06:53:09;103156.47;;;-3.15;100.00
18765;BME280;9511;54.242;12.448;2023-02-28T06:55:39;103159.78;;;-3.09;100.00
18765;BME280;9511;54.242;12.448;2023-02-28T06:58:06;103165.88;;;-3.15;100.00
18765;BME280;9511;54.242;12.448;2023-02-28T07:00:40;103173.44;;;-3.03;100.00
18765;BME280;9511;54.242;12.448;2023-02-28T07:03:08;103169.91;;;-2.96;100.00
18765;BME280;9511;54.242;12.448;2023-02-28T07:05:35;103171.38;;;-2.91;100.00
18765;BME280;9511;54.242;12.448;2023-02-28T07:08:03;103175.94;;;-2.81;100.00
18765;BME280;9511;54.242;12.448;2023-02-28T07:10:32;103177.25;;;-2.78;100.00
18765;BME280;9511;54.242;12.448;2023-02-28T07:13:01;103184.63;;;-2.74;100.00
18765;BME280;9511;54.242;12.448;2023-02-28T07:15:28;103181.63;;;-2.70;100.00
18765;BME280;9511;54.242;12.448;2023-02-28T07:17:55;103180.72;;;-2.63;100.00
18765;BME280;9511;54.242;12.448;2023-02-28T07:20:23;103184.75;;;-2.58;100.00
18765;BME280;9511;54.242;12.448;2023-02-28T07:22:51;103188.06;;;-2.52;100.00
18765;BME280;9511;54.242;12.448;2023-02-28T07:25:22;103178.91;;;-2.41;100.00
18765;BME280;9511;54.242;12.448;2023-02-28T07:27:49;103187.22;;;-2.36;100.00
18765;BME280;9511;54.242;12.448;2023-02-28T07:30:18;103185.72;;;-2.27;100.00
18765;BME280;9511;54.242;12.448;2023-02-28T07:32:46;103176.75;;;-2.15;100.00
18765;BME280;9511;54.242;12.448;2023-02-28T07:35:13;103180.56;;;-2.04;100.00
18765;BME280;9511;54.242;12.448;2023-02-28T07:37:41;103178.28;;;-1.94;100.00
18765;BME280;9511;54.242;12.448;2023-02-28T07:40:10;103177.13;;;-1.89;100.00
18765;BME280;9511;54.242;12.448;2023-02-28T07:42:38;103177.63;;;-1.84;100.00
18765;BME280;9511;54.242;12.448;2023-02-28T07:45:07;103187.22;;;-1.76;100.00
18765;BME280;9511;54.242;12.448;2023-02-28T07:47:38;103186.00;;;-1.64;100.00
18765;BME280;9511;54.242;12.448;2023-02-28T07:50:07;103184.25;;;-1.56;100.00
18765;BME280;9511;54.242;12.448;2023-02-28T07:52:35;103184.38;;;-1.48;100.00
18765;BME280;9511;54.242;12.448;2023-02-28T07:55:04;103187.25;;;-1.38;100.00
18765;BME280;9511;54.242;12.448;2023-02-28T07:57:32;103185.66;;;-1.28;100.00
18765;BME280;9511;54.242;12.448;2023-02-28T07:59:59;103189.63;;;-1.16;100.00
18765;BME280;9511;54.242;12.448;2023-02-28T08:02:39;103190.06;;;-1.04;100.00
18765;BME280;9511;54.242;12.448;2023-02-28T08:05:07;103178.50;;;-0.99;100.00
18765;BME280;9511;54.242;12.448;2023-02-28T08:07:34;103184.22;;;-0.79;100.00
18765;BME280;9511;54.242;12.448;2023-02-28T08:10:01;103185.81;;;-0.72;100.00
18765;BME280;9511;54.242;12.448;2023-02-28T08:12:31;103180.91;;;-0.54;100.00
18765;BME280;9511;54.242;12.448;2023-02-28T08:14:58;103187.13;;;-0.44;100.00
18765;BME280;9511;54.242;12.448;2023-02-28T08:17:26;103182.31;;;-0.33;100.00
18765;BME280;9511;54.242;12.448;2023-02-28T08:19:55;103175.56;;;-0.15;100.00
18765;BME280;9511;54.242;12.448;2023-02-28T08:22:22;103178.53;;;-0.03;99.92
18765;BME280;9511;54.242;12.448;2023-02-28T08:24:49;103177.56;;;0.12;99.86
18765;BME280;9511;54.242;12.448;2023-02-28T08:27:16;103180.09;;;0.28;99.04
18765;BME280;9511;54.242;12.448;2023-02-28T08:29:43;103178.09;;;0.25;98.26
18765;BME280;9511;54.242;12.448;2023-02-28T08:32:11;103178.59;;;0.39;97.44
18765;BME280;9511;54.242;12.448;2023-02-28T08:34:39;103181.09;;;0.46;95.71
18765;BME280;9511;54.242;12.448;2023-02-28T08:37:07;103178.88;;;0.66;95.71
18765;BME280;9511;54.242;12.448;2023-02-28T08:39:35;103183.72;;;0.88;94.76
18765;BME280;9511;54.242;12.448;2023-02-28T08:42:04;103173.75;;;1.01;93.88
18765;BME280;9511;54.242;12.448;2023-02-28T08:44:31;103185.00;;;1.17;93.02
18765;BME280;9511;54.242;12.448;2023-02-28T08:46:58;103183.47;;;1.28;91.97
18765;BME280;9511;54.242;12.448;2023-02-28T08:49:26;103177.66;;;1.39;91.02
18765;BME280;9511;54.242;12.448;2023-02-28T08:51:54;103169.03;;;1.49;90.04
18765;BME280;9511;54.242;12.448;2023-02-28T08:54:24;103172.13;;;1.62;89.14
18765;BME280;9511;54.242;12.448;2023-02-28T08:56:52;103161.38;;;1.68;88.35
18765;BME280;9511;54.242;12.448;2023-02-28T08:59:19;103157.97;;;1.86;87.64
18765;BME280;9511;54.242;12.448;2023-02-28T09:01:46;103155.50;;;1.88;86.83
18765;BME280;9511;54.242;12.448;2023-02-28T09:04:14;103156.72;;;2.00;86.26
18765;BME280;9511;54.242;12.448;2023-02-28T09:06:41;103152.09;;;2.06;85.41
18765;BME280;9511;54.242;12.448;2023-02-28T09:09:08;103158.22;;;2.15;84.66
18765;BME280;9511;54.242;12.448;2023-02-28T09:11:37;103159.72;;;2.30;83.92
18765;BME280;9511;54.242;12.448;2023-02-28T09:14:04;103161.66;;;2.42;83.60
18765;BME280;9511;54.242;12.448;2023-02-28T09:16:32;103156.25;;;2.49;82.98
18765;BME280;9511;54.242;12.448;2023-02-28T09:19:00;103162.44;;;2.68;82.65
18765;BME280;9511;54.242;12.448;2023-02-28T09:21:27;103159.94;;;2.78;82.20
18765;BME280;9511;54.242;12.448;2023-02-28T09:23:55;103166.78;;;2.86;81.95
18765;BME280;9511;54.242;12.448;2023-02-28T09:26:24;103169.25;;;2.93;81.81
18765;BME280;9511;54.242;12.448;2023-02-28T09:28:53;103166.06;;;3.06;81.58
18765;BME280;9511;54.242;12.448;2023-02-28T09:31:23;103166.56;;;3.02;81.31
18765;BME280;9511;54.242;12.448;2023-02-28T09:33:52;103169.84;;;3.18;80.79
18765;BME280;9511;54.242;12.448;2023-02-28T09:36:19;103172.06;;;3.33;80.04
18765;BME280;9511;54.242;12.448;2023-02-28T09:38:47;103174.59;;;3.41;78.88
18765;BME280;9511;54.242;12.448;2023-02-28T09:41:20;103170.47;;;3.54;77.92
18765;BME280;9511;54.242;12.448;2023-02-28T09:43:50;103171.41;;;3.73;77.30
18765;BME280;9511;54.242;12.448;2023-02-28T09:46:28;103173.31;;;3.84;76.93
18765;BME280;9511;54.242;12.448;2023-02-28T09:48:58;103175.03;;;3.94;76.52
18765;BME280;9511;54.242;12.448;2023-02-28T09:51:34;103173.50;;;4.06;75.70
18765;BME280;9511;54.242;12.448;2023-02-28T09:54:04;103174.84;;;4.11;75.03
18765;BME280;9511;54.242;12.448;2023-02-28T09:56:36;103171.50;;;4.22;74.57
18765;BME280;9511;54.242;12.448;2023-02-28T09:59:13;103179.41;;;4.33;73.89
18765;BME280;9511;54.242;12.448;2023-02-28T10:01:52;103172.94;;;4.29;72.46
18765;BME280;9511;54.242;12.448;2023-02-28T10:04:38;103181.50;;;4.37;71.71
18765;BME280;9511;54.242;12.448;2023-02-28T10:07:19;103176.94;;;4.44;71.53
18765;BME280;9511;54.242;12.448;2023-02-28T10:09:53;103180.38;;;4.64;71.51
18765;BME280;9511;54.242;12.448;2023-02-28T10:12:22;103169.53;;;4.79;71.68
18765;BME280;9511;54.242;12.448;2023-02-28T10:14:51;103173.38;;;4.93;70.87
18765;BME280;9511;54.242;12.448;2023-02-28T10:17:22;103174.69;;;5.09;70.52
18765;BME280;9511;54.242;12.448;2023-02-28T10:19:58;103177.59;;;5.12;69.81
18765;BME280;9511;54.242;12.448;2023-02-28T10:22:29;103161.97;;;5.23;69.04
18765;BME280;9511;54.242;12.448;2023-02-28T10:24:59;103169.97;;;5.35;67.81
18765;BME280;9511;54.242;12.448;2023-02-28T10:27:30;103155.47;;;5.50;67.05
18765;BME280;9511;54.242;12.448;2023-02-28T10:30:00;103156.44;;;5.51;65.90
18765;BME280;9511;54.242;12.448;2023-02-28T10:32:32;103156.03;;;5.56;65.90
18765;BME280;9511;54.242;12.448;2023-02-28T10:35:14;103159.41;;;5.66;65.15
18765;BME280;9511;54.242;12.448;2023-02-28T10:37:44;103161.97;;;5.86;65.21
18765;BME280;9511;54.242;12.448;2023-02-28T10:40:29;103161.91;;;6.06;64.86
18765;BME280;9511;54.242;12.448;2023-02-28T10:42:59;103155.41;;;6.23;64.81
18765;BME280;9511;54.242;12.448;2023-02-28T10:45:28;103159.22;;;6.27;64.19
18765;BME280;9511;54.242;12.448;2023-02-28T10:47:59;103164.09;;;6.22;63.86
18765;BME280;9511;54.242;12.448;2023-02-28T10:50:32;103152.06;;;6.36;62.92
18765;BME280;9511;54.242;12.448;2023-02-28T10:53:10;103146.19;;;6.28;63.63
18765;BME280;9511;54.242;12.448;2023-02-28T10:55:42;103146.53;;;6.43;63.89
18765;BME280;9511;54.242;12.448;2023-02-28T10:58:21;103141.44;;;6.56;63.06
18765;BME280;9511;54.242;12.448;2023-02-28T11:00:50;103137.69;;;6.64;63.74
18765;BME280;9511;54.242;12.448;2023-02-28T11:03:30;103140.13;;;6.73;62.58
18765;BME280;9511;54.242;12.448;2023-02-28T11:05:58;103137.56;;;6.85;62.58
18765;BME280;9511;54.242;12.448;2023-02-28T11:08:25;103135.47;;;7.14;63.18
18765;BME280;9511;54.242;12.448;2023-02-28T11:10:56;103132.50;;;7.22;61.26
18765;BME280;9511;54.242;12.448;2023-02-28T11:13:27;103130.03;;;7.35;61.09
18765;BME280;9511;54.242;12.448;2023-02-28T11:15:58;103131.75;;;7.69;61.14
18765;BME280;9511;54.242;12.448;2023-02-28T11:18:29;103130.59;;;7.54;60.66
18765;BME280;9511;54.242;12.448;2023-02-28T11:20:59;103132.19;;;7.40;60.20
18765;BME280;9511;54.242;12.448;2023-02-28T11:23:31;103124.94;;;7.14;59.89
18765;BME280;9511;54.242;12.448;2023-02-28T11:26:01;103121.06;;;7.33;60.25
18765;BME280;9511;54.242;12.448;2023-02-28T11:28:30;103129.63;;;7.18;59.37
18765;BME280;9511;54.242;12.448;2023-02-28T11:31:05;103126.03;;;7.40;59.10
18765;BME280;9511;54.242;12.448;2023-02-28T11:33:42;103122.59;;;7.53;59.13
18765;BME280;9511;54.242;12.448;2023-02-28T11:36:13;103120.41;;;7.70;59.87
18765;BME280;9511;54.242;12.448;2023-02-28T11:38:42;103119.25;;;7.79;58.67
18765;BME280;9511;54.242;12.448;2023-02-28T11:41:28;103109.41;;;7.76;58.02
18765;BME280;9511;54.242;12.448;2023-02-28T11:44:05;103107.13;;;7.81;58.35
18765;BME280;9511;54.242;12.448;2023-02-28T11:46:41;103099.28;;;8.06;57.65
18765;BME280;9511;54.242;12.448;2023-02-28T11:49:27;103099.22;;;8.29;57.50
18765;BME280;9511;54.242;12.448;2023-02-28T11:52:01;103089.72;;;8.19;56.45
18765;BME280;9511;54.242;12.448;2023-02-28T11:54:48;103086.16;;;8.19;56.02
18765;BME280;9511;54.242;12.448;2023-02-28T11:57:32;103090.72;;;8.45;55.27
18765;BME280;9511;54.242;12.448;2023-02-28T12:00:11;103087.28;;;8.46;55.62
18765;BME280;9511;54.242;12.448;2023-02-28T12:02:54;103076.41;;;8.30;55.10
18765;BME280;9511;54.242;12.448;2023-02-28T12:05:31;103081.34;;;8.37;55.47
18765;BME280;9511;54.242;12.448;2023-02-28T12:08:08;103082.22;;;8.49;55.63
18765;BME280;9511;54.242;12.448;2023-02-28T12:10:44;103077.88;;;8.49;55.09
18765;BME280;9511;54.242;12.448;2023-02-28T12:13:23;103074.19;;;8.47;54.10
18765;BME280;9511;54.242;12.448;2023-02-28T12:16:14;103077.69;;;8.23;54.55
18765;BME280;9511;54.242;12.448;2023-02-28T12:19:16;103072.84;;;8.41;54.64
18765;BME280;9511;54.242;12.448;2023-02-28T12:21:57;103073.88;;;8.68;55.08
18765;BME280;9511;54.242;12.448;2023-02-28T12:24:41;103065.91;;;8.93;54.43
18765;BME280;9511;54.242;12.448;2023-02-28T12:27:14;103069.19;;;8.39;54.76
18765;BME280;9511;54.242;12.448;2023-02-28T12:29:49;103071.16;;;8.18;55.50
18765;BME280;9511;54.242;12.448;2023-02-28T12:32:21;103065.00;;;8.06;56.48
18765;BME280;9511;54.242;12.448;2023-02-28T12:34:55;103064.22;;;7.95;56.11
18765;BME280;9511;54.242;12.448;2023-02-28T12:37:32;103060.53;;;8.16;55.57
18765;BME280;9511;54.242;12.448;2023-02-28T12:40:03;103063.56;;;8.59;56.32
18765;BME280;9511;54.242;12.448;2023-02-28T12:42:36;103053.13;;;8.99;55.71
18765;BME280;9511;54.242;12.448;2023-02-28T12:45:11;103059.16;;;8.71;54.61
18765;BME280;9511;54.242;12.448;2023-02-28T12:47:42;103055.19;;;9.16;54.62
18765;BME280;9511;54.242;12.448;2023-02-28T12:50:10;103058.97;;;9.07;53.77
18765;BME280;9511;54.242;12.448;2023-02-28T12:52:47;103048.97;;;8.64;54.34
18765;BME280;9511;54.242;12.448;2023-02-28T12:55:23;103049.25;;;8.81;55.76
18765;BME280;9511;54.242;12.448;2023-02-28T12:58:02;103049.72;;;9.40;55.06
18765;BME280;9511;54.242;12.448;2023-02-28T13:00:35;103052.28;;;9.38;53.47
18765;BME280;9511;54.242;12.448;2023-02-28T13:03:24;103059.88;;;9.34;53.27
18765;BME280;9511;54.242;12.448;2023-02-28T13:06:05;103057.53;;;9.51;53.26
18765;BME280;9511;54.242;12.448;2023-02-28T13:11:43;103056.81;;;10.35;52.75
18765;BME280;9511;54.242;12.448;2023-02-28T13:14:20;103056.72;;;10.20;51.14
18765;BME280;9511;54.242;12.448;2023-02-28T13:16:56;103065.44;;;10.60;50.81
18765;BME280;9511;54.242;12.448;2023-02-28T13:19:25;103055.91;;;10.77;50.81
18765;BME280;9511;54.242;12.448;2023-02-28T13:21:55;103052.34;;;10.62;51.34
18765;BME280;9511;54.242;12.448;2023-02-28T13:24:47;103052.53;;;10.80;49.69
18765;BME280;9511;54.242;12.448;2023-02-28T13:27:24;103046.59;;;10.69;50.43
18765;BME280;9511;54.242;12.448;2023-02-28T13:29:58;103047.16;;;10.22;50.06
18765;BME280;9511;54.242;12.448;2023-02-28T13:32:32;103053.19;;;10.48;50.22
18765;BME280;9511;54.242;12.448;2023-02-28T13:35:14;103049.53;;;10.74;49.84
18765;BME280;9511;54.242;12.448;2023-02-28T13:37:43;103052.88;;;10.56;49.56
18765;BME280;9511;54.242;12.448;2023-02-28T13:40:31;103053.63;;;10.83;50.22
18765;BME280;9511;54.242;12.448;2023-02-28T13:43:07;103042.75;;;10.64;49.31
18765;BME280;9511;54.242;12.448;2023-02-28T13:45:35;103045.97;;;10.88;49.50
18765;BME280;9511;54.242;12.448;2023-02-28T13:48:14;103039.22;;;11.37;49.00
18765;BME280;9511;54.242;12.448;2023-02-28T13:50:43;103042.13;;;11.27;48.29
18765;BME280;9511;54.242;12.448;2023-02-28T13:53:30;103037.03;;;11.30;48.24
18765;BME280;9511;54.242;12.448;2023-02-28T13:56:06;103027.53;;;11.19;48.29
18765;BME280;9511;54.242;12.448;2023-02-28T13:58:51;103029.13;;;11.47;49.08
18765;BME280;9511;54.242;12.448;2023-02-28T14:01:30;103018.13;;;11.70;48.56
18765;BME280;9511;54.242;12.448;2023-02-28T14:04:14;103011.25;;;11.28;47.73
18765;BME280;9511;54.242;12.448;2023-02-28T14:06:49;103004.59;;;11.20;47.70
18765;BME280;9511;54.242;12.448;2023-02-28T14:09:23;103003.69;;;11.04;48.50
18765;BME280;9511;54.242;12.448;2023-02-28T14:11:51;102998.16;;;11.77;47.19
18765;BME280;9511;54.242;12.448;2023-02-28T14:17:24;102996.22;;;12.38;46.09
18765;BME280;9511;54.242;12.448;2023-02-28T14:19:52;102995.22;;;12.52;45.97
18765;BME280;9511;54.242;12.448;2023-02-28T14:22:38;102983.69;;;12.68;45.71
18765;BME280;9511;54.242;12.448;2023-02-28T14:25:16;102981.22;;;13.07;44.11
18765;BME280;9511;54.242;12.448;2023-02-28T14:27:49;102979.03;;;12.98;43.80
18765;BME280;9511;54.242;12.448;2023-02-28T14:30:47;102975.78;;;13.39;43.44
18765;BME280;9511;54.242;12.448;2023-02-28T14:33:25;102977.00;;;13.28;43.07
18765;BME280;9511;54.242;12.448;2023-02-28T14:36:07;102969.06;;;13.12;43.44
18765;BME280;9511;54.242;12.448;2023-02-28T14:38:43;102965.56;;;12.95;42.94
18765;BME280;9511;54.242;12.448;2023-02-28T14:41:17;102958.00;;;13.02;44.00
18765;BME280;9511;54.242;12.448;2023-02-28T14:43:51;102958.94;;;13.76;43.31
18765;BME280;9511;54.242;12.448;2023-02-28T14:46:18;102951.53;;;14.27;41.87
18765;BME280;9511;54.242;12.448;2023-02-28T14:48:49;102964.53;;;14.00;41.77
18765;BME280;9511;54.242;12.448;2023-02-28T14:51:21;102965.09;;;14.12;41.67
18765;BME280;9511;54.242;12.448;2023-02-28T14:53:51;102968.28;;;14.24;41.45
18765;BME280;9511;54.242;12.448;2023-02-28T14:56:22;102960.25;;;15.03;40.59
18765;BME280;9511;54.242;12.448;2023-02-28T14:58:52;102968.19;;;14.81;39.71
18765;BME280;9511;54.242;12.448;2023-02-28T15:01:21;102961.09;;;15.66;39.53
18765;BME280;9511;54.242;12.448;2023-02-28T15:03:57;102964.09;;;16.22;37.67
18765;BME280;9511;54.242;12.448;2023-02-28T15:06:24;102957.81;;;16.95;36.95
18765;BME280;9511;54.242;12.448;2023-02-28T15:09:08;102948.47;;;16.82;37.12
18765;BME280;9511;54.242;12.448;2023-02-28T15:11:36;102952.63;;;16.99;37.12
18765;BME280;9511;54.242;12.448;2023-02-28T15:14:04;102950.31;;;16.11;37.12
18765;BME280;9511;54.242;12.448;2023-02-28T15:16:34;102957.88;;;15.32;38.58
18765;BME280;9511;54.242;12.448;2023-02-28T15:19:11;102952.72;;;13.75;39.80
18765;BME280;9511;54.242;12.448;2023-02-28T15:21:43;102956.84;;;11.49;44.16
18765;BME280;9511;54.242;12.448;2023-02-28T15:24:15;102977.09;;;9.88;47.14
18765;BME280;9511;54.242;12.448;2023-02-28T15:26:52;102982.44;;;8.68;50.45
18765;BME280;9511;54.242;12.448;2023-02-28T15:29:22;102985.34;;;7.73;53.02
18765;BME280;9511;54.242;12.448;2023-02-28T15:31:55;102984.63;;;7.15;55.68
18765;BME280;9511;54.242;12.448;2023-02-28T15:34:28;102977.50;;;6.56;57.72
18765;BME280;9511;54.242;12.448;2023-02-28T15:36:59;102975.16;;;6.37;58.85
18765;BME280;9511;54.242;12.448;2023-02-28T15:39:28;102965.19;;;5.99;59.91
18765;BME280;9511;54.242;12.448;2023-02-28T15:42:10;102969.19;;;5.84;60.67
18765;BME280;9511;54.242;12.448;2023-02-28T15:44:38;102963.50;;;5.68;61.52
18765;BME280;9511;54.242;12.448;2023-02-28T15:47:11;102973.22;;;5.47;62.68
18765;BME280;9511;54.242;12.448;2023-02-28T15:49:47;102965.00;;;5.32;63.90
18765;BME280;9511;54.242;12.448;2023-02-28T15:52:17;102963.25;;;5.11;64.46
18765;BME280;9511;54.242;12.448;2023-02-28T15:54:46;102970.34;;;5.12;65.25
18765;BME280;9511;54.242;12.448;2023-02-28T15:57:18;102975.47;;;5.00;65.44
18765;BME280;9511;54.242;12.448;2023-02-28T15:59:50;102976.13;;;4.97;66.27
18765;BME280;9511;54.242;12.448;2023-02-28T16:02:20;102976.44;;;4.80;66.54
18765;BME280;9511;54.242;12.448;2023-02-28T16:05:02;102970.66;;;4.74;67.35
18765;BME280;9511;54.242;12.448;2023-02-28T16:07:29;102969.25;;;4.67;67.07
18765;BME280;9511;54.242;12.448;2023-02-28T16:09:56;102966.22;;;4.63;67.51
18765;BME280;9511;54.242;12.448;2023-02-28T16:12:26;102967.03;;;4.51;67.73
18765;BME280;9511;54.242;12.448;2023-02-28T16:14:57;102978.81;;;4.46;68.39
18765;BME280;9511;54.242;12.448;2023-02-28T16:17:26;102974.88;;;4.41;68.88
18765;BME280;9511;54.242;12.448;2023-02-28T16:19:55;102966.13;;;4.31;69.56
18765;BME280;9511;54.242;12.448;2023-02-28T16:22:24;102973.59;;;4.26;70.12
18765;BME280;9511;54.242;12.448;2023-02-28T16:24:51;102975.13;;;4.24;70.46
18765;BME280;9511;54.242;12.448;2023-02-28T16:27:21;102970.28;;;4.18;70.91
18765;BME280;9511;54.242;12.448;2023-02-28T16:29:49;102971.75;;;4.15;71.54
18765;BME280;9511;54.242;12.448;2023-02-28T16:32:16;102974.63;;;4.08;71.87
18765;BME280;9511;54.242;12.448;2023-02-28T16:34:43;102974.84;;;4.00;72.08
18765;BME280;9511;54.242;12.448;2023-02-28T16:37:17;102980.09;;;3.90;72.20
18765;BME280;9511;54.242;12.448;2023-02-28T16:39:46;102981.41;;;3.85;72.61
18765;BME280;9511;54.242;12.448;2023-02-28T16:42:21;102983.47;;;3.79;73.28
18765;BME280;9511;54.242;12.448;2023-02-28T16:44:51;102980.72;;;3.67;73.33
18765;BME280;9511;54.242;12.448;2023-02-28T16:47:19;102977.91;;;3.56;73.56
18765;BME280;9511;54.242;12.448;2023-02-28T16:49:46;102983.53;;;3.50;73.64
18765;BME280;9511;54.242;12.448;2023-02-28T16:52:14;102986.34;;;3.43;73.29
18765;BME280;9511;54.242;12.448;2023-02-28T16:54:41;102997.84;;;3.35;74.01
18765;BME280;9511;54.242;12.448;2023-02-28T16:57:18;103000.03;;;3.30;74.08
18765;BME280;9511;54.242;12.448;2023-02-28T16:59:46;102996.75;;;3.23;74.02
18765;BME280;9511;54.242;12.448;2023-02-28T17:02:15;103005.06;;;3.18;74.31
18765;BME280;9511;54.242;12.448;2023-02-28T17:04:45;103001.97;;;3.04;74.64
18765;BME280;9511;54.242;12.448;2023-02-28T17:07:14;103001.94;;;2.93;75.16
18765;BME280;9511;54.242;12.448;2023-02-28T17:09:42;103006.97;;;2.82;75.06
18765;BME280;9511;54.242;12.448;2023-02-28T17:12:10;103010.97;;;2.78;75.73
18765;BME280;9511;54.242;12.448;2023-02-28T17:14:39;103015.72;;;2.82;75.92
18765;BME280;9511;54.242;12.448;2023-02-28T17:17:07;103015.63;;;2.72;75.80
18765;BME280;9511;54.242;12.448;2023-02-28T17:19:36;103009.84;;;2.66;75.88
18765;BME280;9511;54.242;12.448;2023-02-28T17:22:08;103016.69;;;2.55;75.98
18765;BME280;9511;54.242;12.448;2023-02-28T17:24:35;103015.47;;;2.52;76.34